Sand Key, FL current weather conditions

sailwx.info

Wind from 290 at 14 knots gusting 18

Air temperature 21.7° C
Dewpoint 15.0° C

Last reported at 2017-Feb-23 12:50 UTC.
Time now 2017-Feb-23 13:50 UTC

Location: N 24°27' W 081°53'.
View on Google Maps.

See reports from other nearby stations

  
Tides and Currents Weather Stations Pressure Air Temp Water Temp Dewpoint Dewpoint Depression Visibility Wind Speed Wind Dir Waves Ship Positions
date/time (UTC)wind fromknots sea level pressurealtimeterstation pressurevisibilityair tempwater tempwave heightnotes
2017-Feb-23 12:50 290 14 gusting 18 21.7
2017-Feb-23 11:50 280 13 gusting 17 21.7
2017-Feb-23 10:50 290 7 gusting 9 21.5
2017-Feb-23 09:50 21.4
2017-Feb-23 08:50 21.4
2017-Feb-23 07:50 21.4
2017-Feb-23 06:50 21.3
2017-Feb-23 05:50 21.2
2017-Feb-23 04:50 21.5
2017-Feb-23 03:50 21.4
2017-Feb-23 02:50 330 7 gusting 12 21.4
2017-Feb-23 01:50 360 1 gusting 6 21.3
2017-Feb-23 00:50 20.7
2017-Feb-22 23:50 260 8 gusting 11 20.6
2017-Feb-22 22:50 320 17 gusting 20 20.1
2017-Feb-22 21:50 280 13 gusting 15 22.6
2017-Feb-22 20:50 290 13 gusting 17 22.2
2017-Feb-22 19:50 300 15 gusting 18 21.8
2017-Feb-22 18:50 290 11 gusting 13 21.2
2017-Feb-22 17:50 310 8 gusting 11 20.6
2017-Feb-22 16:50 340 11 gusting 12 20.2
2017-Feb-22 15:50 320 5 gusting 9 20.0
2017-Feb-22 14:50 280 4 gusting 6 20.4
2017-Feb-22 13:50 280 9 gusting 14 21.0
2017-Feb-22 12:50 180 22 gusting 28 23.5
2017-Feb-22 11:50 180 24 gusting 27 23.6
2017-Feb-22 10:50 180 22 gusting 27 23.5
2017-Feb-22 09:50 170 20 gusting 25 23.9
2017-Feb-22 08:50 180 20 gusting 24 23.8
2017-Feb-22 07:50 180 20 gusting 24 23.8
2017-Feb-22 06:50 170 19 gusting 21 24.0
2017-Feb-22 05:50 170 19 gusting 21 24.1
2017-Feb-22 04:50 160 17 gusting 19 24.0
2017-Feb-22 03:50 160 12 gusting 14 5.423.925.0
2017-Feb-22 02:50 150 13 gusting 15 23.9
2017-Feb-22 01:50 150 13 gusting 14 23.8
2017-Feb-22 00:50 150 13 gusting 13 23.8
2017-Feb-21 23:50 150 13 gusting 14 23.8
2017-Feb-21 22:50 140 15 gusting 18 23.7
2017-Feb-21 21:50 140 13 gusting 15 23.7
2017-Feb-21 20:50 140 13 gusting 15 23.7
2017-Feb-21 19:50 130 11 gusting 13 23.8
2017-Feb-21 18:50 120 12 gusting 13 23.7
2017-Feb-21 17:50 100 9 gusting 11 23.4
2017-Feb-21 16:50 100 12 gusting 13 23.2
2017-Feb-21 15:50 080 12 gusting 13 23.1
2017-Feb-21 14:50 070 13 gusting 14 23.2
2017-Feb-21 13:50 080 13 gusting 17 23.4